sensor_id;sensor_type;location;lat;lon;timestamp;temperature;humidity
4701;DHT22;8724;51.272;6.554;2023-04-06T00:01:22;9.70;99.90
4701;DHT22;8724;51.272;6.554;2023-04-06T00:03:50;9.70;99.90
4701;DHT22;8724;51.272;6.554;2023-04-06T00:06:19;9.60;99.90
4701;DHT22;8724;51.272;6.554;2023-04-06T00:08:47;9.60;99.90
4701;DHT22;8724;51.272;6.554;2023-04-06T00:11:16;9.60;99.90
4701;DHT22;8724;51.272;6.554;2023-04-06T00:13:45;9.60;99.90
4701;DHT22;8724;51.272;6.554;2023-04-06T00:16:13;9.60;99.90
4701;DHT22;8724;51.272;6.554;2023-04-06T00:18:43;9.90;99.90
4701;DHT22;8724;51.272;6.554;2023-04-06T00:21:15;9.50;99.90
4701;DHT22;8724;51.272;6.554;2023-04-06T00:23:46;9.60;99.90
4701;DHT22;8724;51.272;6.554;2023-04-06T00:26:15;9.50;99.90
4701;DHT22;8724;51.272;6.554;2023-04-06T00:28:46;9.50;99.90
4701;DHT22;8724;51.272;6.554;2023-04-06T00:31:17;9.50;99.90
4701;DHT22;8724;51.272;6.554;2023-04-06T00:33:48;9.50;99.90
4701;DHT22;8724;51.272;6.554;2023-04-06T00:36:20;9.40;99.90
4701;DHT22;8724;51.272;6.554;2023-04-06T00:38:48;9.40;99.90
4701;DHT22;8724;51.272;6.554;2023-04-06T00:41:19;9.60;99.90
4701;DHT22;8724;51.272;6.554;2023-04-06T00:43:48;9.40;99.90
4701;DHT22;8724;51.272;6.554;2023-04-06T00:46:17;9.30;99.90
4701;DHT22;8724;51.272;6.554;2023-04-06T00:48:47;9.30;99.90
4701;DHT22;8724;51.272;6.554;2023-04-06T00:51:16;9.30;99.90
4701;DHT22;8724;51.272;6.554;2023-04-06T00:53:44;9.20;99.90
4701;DHT22;8724;51.272;6.554;2023-04-06T00:56:17;9.20;99.90
4701;DHT22;8724;51.272;6.554;2023-04-06T00:58:52;9.20;99.90
4701;DHT22;8724;51.272;6.554;2023-04-06T01:01:20;9.20;99.90
4701;DHT22;8724;51.272;6.554;2023-04-06T01:03:53;9.20;99.90
4701;DHT22;8724;51.272;6.554;2023-04-06T01:06:23;9.20;99.90
4701;DHT22;8724;51.272;6.554;2023-04-06T01:08:59;9.20;99.90
4701;DHT22;8724;51.272;6.554;2023-04-06T01:11:31;9.10;99.90
4701;DHT22;8724;51.272;6.554;2023-04-06T01:14:02;9.10;99.90
4701;DHT22;8724;51.272;6.554;2023-04-06T01:16:45;9.10;99.90
4701;DHT22;8724;51.272;6.554;2023-04-06T01:19:18;9.00;99.90
4701;DHT22;8724;51.272;6.554;2023-04-06T01:21:51;9.00;99.90
4701;DHT22;8724;51.272;6.554;2023-04-06T01:24:44;9.00;99.90
4701;DHT22;8724;51.272;6.554;2023-04-06T01:27:25;9.00;99.90
4701;DHT22;8724;51.272;6.554;2023-04-06T01:30:13;9.00;99.90
4701;DHT22;8724;51.272;6.554;2023-04-06T01:32:51;9.00;99.90
4701;DHT22;8724;51.272;6.554;2023-04-06T01:35:37;8.90;99.90
4701;DHT22;8724;51.272;6.554;2023-04-06T01:38:23;8.90;99.90
4701;DHT22;8724;51.272;6.554;2023-04-06T01:40:54;8.90;99.90
4701;DHT22;8724;51.272;6.554;2023-04-06T01:43:25;8.90;99.90
4701;DHT22;8724;51.272;6.554;2023-04-06T01:46:03;8.90;99.90
4701;DHT22;8724;51.272;6.554;2023-04-06T01:48:39;8.90;99.90
4701;DHT22;8724;51.272;6.554;2023-04-06T01:51:27;8.80;99.90
4701;DHT22;8724;51.272;6.554;2023-04-06T01:54:00;8.80;99.90
4701;DHT22;8724;51.272;6.554;2023-04-06T01:56:54;8.80;99.90
4701;DHT22;8724;51.272;6.554;2023-04-06T01:59:39;8.80;99.90
4701;DHT22;8724;51.272;6.554;2023-04-06T02:02:21;8.80;99.90
4701;DHT22;8724;51.272;6.554;2023-04-06T02:05:00;8.80;99.90
4701;DHT22;8724;51.272;6.554;2023-04-06T02:07:32;8.80;99.90
4701;DHT22;8724;51.272;6.554;2023-04-06T02:10:01;8.80;99.90
4701;DHT22;8724;51.272;6.554;2023-04-06T02:12:38;8.80;99.90
4701;DHT22;8724;51.272;6.554;2023-04-06T02:15:11;8.90;99.90
4701;DHT22;8724;51.272;6.554;2023-04-06T02:17:40;8.80;99.90
4701;DHT22;8724;51.272;6.554;2023-04-06T02:20:09;8.90;99.90
4701;DHT22;8724;51.272;6.554;2023-04-06T02:22:39;8.90;99.90
4701;DHT22;8724;51.272;6.554;2023-04-06T02:25:16;8.90;99.90
4701;DHT22;8724;51.272;6.554;2023-04-06T02:27:44;8.90;99.90
4701;DHT22;8724;51.272;6.554;2023-04-06T02:30:13;8.90;99.90
4701;DHT22;8724;51.272;6.554;2023-04-06T02:32:43;8.90;99.90
4701;DHT22;8724;51.272;6.554;2023-04-06T02:35:13;8.90;99.90
4701;DHT22;8724;51.272;6.554;2023-04-06T02:37:43;8.90;99.90
4701;DHT22;8724;51.272;6.554;2023-04-06T02:40:11;9.00;99.90
4701;DHT22;8724;51.272;6.554;2023-04-06T02:42:41;8.90;99.90
4701;DHT22;8724;51.272;6.554;2023-04-06T02:45:10;8.90;99.90
4701;DHT22;8724;51.272;6.554;2023-04-06T02:47:43;8.90;99.90
4701;DHT22;8724;51.272;6.554;2023-04-06T02:50:15;9.00;99.90
4701;DHT22;8724;51.272;6.554;2023-04-06T02:52:53;8.90;99.90
4701;DHT22;8724;51.272;6.554;2023-04-06T02:55:22;8.90;99.90
4701;DHT22;8724;51.272;6.554;2023-04-06T02:57:52;8.90;99.90
4701;DHT22;8724;51.272;6.554;2023-04-06T03:00:25;8.90;99.90
4701;DHT22;8724;51.272;6.554;2023-04-06T03:02:54;8.90;99.90
4701;DHT22;8724;51.272;6.554;2023-04-06T03:05:27;8.90;99.90
4701;DHT22;8724;51.272;6.554;2023-04-06T03:07:55;8.80;99.90
4701;DHT22;8724;51.272;6.554;2023-04-06T03:10:35;8.80;99.90
4701;DHT22;8724;51.272;6.554;2023-04-06T03:13:05;8.80;99.90
4701;DHT22;8724;51.272;6.554;2023-04-06T03:16:00;8.80;99.90
4701;DHT22;8724;51.272;6.554;2023-04-06T03:18:29;8.80;99.90
4701;DHT22;8724;51.272;6.554;2023-04-06T03:20:57;8.80;99.90
4701;DHT22;8724;51.272;6.554;2023-04-06T03:23:45;8.80;99.90
4701;DHT22;8724;51.272;6.554;2023-04-06T03:26:15;8.80;99.90
4701;DHT22;8724;51.272;6.554;2023-04-06T03:28:45;8.80;99.90
4701;DHT22;8724;51.272;6.554;2023-04-06T03:31:15;8.80;99.90
4701;DHT22;8724;51.272;6.554;2023-04-06T03:33:49;8.80;99.90
4701;DHT22;8724;51.272;6.554;2023-04-06T03:36:29;8.80;99.90
4701;DHT22;8724;51.272;6.554;2023-04-06T03:38:58;8.80;99.90
4701;DHT22;8724;51.272;6.554;2023-04-06T03:41:27;8.70;99.90
4701;DHT22;8724;51.272;6.554;2023-04-06T03:44:15;8.70;99.90
4701;DHT22;8724;51.272;6.554;2023-04-06T03:46:44;8.70;99.90
4701;DHT22;8724;51.272;6.554;2023-04-06T03:49:17;8.70;99.90
4701;DHT22;8724;51.272;6.554;2023-04-06T03:51:48;8.70;99.90
4701;DHT22;8724;51.272;6.554;2023-04-06T03:54:17;8.70;99.90
4701;DHT22;8724;51.272;6.554;2023-04-06T03:56:45;8.70;99.90
4701;DHT22;8724;51.272;6.554;2023-04-06T03:59:15;8.70;99.90
4701;DHT22;8724;51.272;6.554;2023-04-06T04:01:45;8.70;99.90
4701;DHT22;8724;51.272;6.554;2023-04-06T04:04:14;8.70;99.90
4701;DHT22;8724;51.272;6.554;2023-04-06T04:06:42;8.70;99.90
4701;DHT22;8724;51.272;6.554;2023-04-06T04:09:11;8.70;99.90
4701;DHT22;8724;51.272;6.554;2023-04-06T04:11:39;8.70;99.90
4701;DHT22;8724;51.272;6.554;2023-04-06T04:14:10;8.60;99.90
4701;DHT22;8724;51.272;6.554;2023-04-06T04:16:40;8.60;99.90
4701;DHT22;8724;51.272;6.554;2023-04-06T04:19:09;8.60;99.90
4701;DHT22;8724;51.272;6.554;2023-04-06T04:21:45;8.60;99.90
4701;DHT22;8724;51.272;6.554;2023-04-06T04:24:19;8.60;99.90
4701;DHT22;8724;51.272;6.554;2023-04-06T04:26:49;8.60;99.90
4701;DHT22;8724;51.272;6.554;2023-04-06T04:29:18;8.60;99.90
4701;DHT22;8724;51.272;6.554;2023-04-06T04:31:52;8.60;99.90
4701;DHT22;8724;51.272;6.554;2023-04-06T04:34:21;8.60;99.90
4701;DHT22;8724;51.272;6.554;2023-04-06T04:36:52;8.60;99.90
4701;DHT22;8724;51.272;6.554;2023-04-06T04:39:31;8.60;99.90
4701;DHT22;8724;51.272;6.554;2023-04-06T04:42:04;8.60;99.90
4701;DHT22;8724;51.272;6.554;2023-04-06T04:44:34;8.60;99.90
4701;DHT22;8724;51.272;6.554;2023-04-06T04:47:05;8.60;99.90
4701;DHT22;8724;51.272;6.554;2023-04-06T04:49:42;8.50;99.90
4701;DHT22;8724;51.272;6.554;2023-04-06T04:52:14;8.50;99.90
4701;DHT22;8724;51.272;6.554;2023-04-06T04:55:15;8.50;99.90
4701;DHT22;8724;51.272;6.554;2023-04-06T04:57:47;8.50;99.90
4701;DHT22;8724;51.272;6.554;2023-04-06T05:00:19;8.60;99.90
4701;DHT22;8724;51.272;6.554;2023-04-06T05:02:50;8.50;99.90
4701;DHT22;8724;51.272;6.554;2023-04-06T05:05:31;8.50;99.90
4701;DHT22;8724;51.272;6.554;2023-04-06T05:08:03;8.50;99.90
4701;DHT22;8724;51.272;6.554;2023-04-06T05:10:50;8.50;99.90
4701;DHT22;8724;51.272;6.554;2023-04-06T05:13:20;8.60;99.90
4701;DHT22;8724;51.272;6.554;2023-04-06T05:15:50;8.50;99.90
4701;DHT22;8724;51.272;6.554;2023-04-06T05:18:33;8.50;99.90
4701;DHT22;8724;51.272;6.554;2023-04-06T05:21:03;8.60;99.90
4701;DHT22;8724;51.272;6.554;2023-04-06T05:23:40;8.50;99.90
4701;DHT22;8724;51.272;6.554;2023-04-06T05:26:09;8.50;99.90
4701;DHT22;8724;51.272;6.554;2023-04-06T05:28:37;8.50;99.90
4701;DHT22;8724;51.272;6.554;2023-04-06T05:31:06;8.50;99.90
4701;DHT22;8724;51.272;6.554;2023-04-06T05:33:45;8.60;99.90
4701;DHT22;8724;51.272;6.554;2023-04-06T05:36:16;8.60;99.90
4701;DHT22;8724;51.272;6.554;2023-04-06T05:38:48;8.60;99.90
4701;DHT22;8724;51.272;6.554;2023-04-06T05:41:43;8.60;99.90
4701;DHT22;8724;51.272;6.554;2023-04-06T05:44:13;8.50;99.90
4701;DHT22;8724;51.272;6.554;2023-04-06T05:46:47;8.60;99.90
4701;DHT22;8724;51.272;6.554;2023-04-06T05:49:18;8.60;99.90
4701;DHT22;8724;51.272;6.554;2023-04-06T05:51:47;8.50;99.90
4701;DHT22;8724;51.272;6.554;2023-04-06T05:54:15;8.60;99.90
4701;DHT22;8724;51.272;6.554;2023-04-06T05:56:44;8.50;99.90
4701;DHT22;8724;51.272;6.554;2023-04-06T05:59:13;8.60;99.90
4701;DHT22;8724;51.272;6.554;2023-04-06T06:01:44;8.60;99.90
4701;DHT22;8724;51.272;6.554;2023-04-06T06:04:13;8.60;99.90
4701;DHT22;8724;51.272;6.554;2023-04-06T06:06:43;8.60;99.90
4701;DHT22;8724;51.272;6.554;2023-04-06T06:09:18;8.60;99.90
4701;DHT22;8724;51.272;6.554;2023-04-06T06:11:57;8.60;99.90
4701;DHT22;8724;51.272;6.554;2023-04-06T06:14:28;8.60;99.90
4701;DHT22;8724;51.272;6.554;2023-04-06T06:16:57;8.60;99.90
4701;DHT22;8724;51.272;6.554;2023-04-06T06:19:27;8.60;99.90
4701;DHT22;8724;51.272;6.554;2023-04-06T06:22:01;8.70;99.90
4701;DHT22;8724;51.272;6.554;2023-04-06T06:24:31;8.70;99.90
4701;DHT22;8724;51.272;6.554;2023-04-06T06:27:00;8.70;99.90
4701;DHT22;8724;51.272;6.554;2023-04-06T06:29:32;8.70;99.90
4701;DHT22;8724;51.272;6.554;2023-04-06T06:32:00;8.70;99.90
4701;DHT22;8724;51.272;6.554;2023-04-06T06:34:30;8.70;99.90
4701;DHT22;8724;51.272;6.554;2023-04-06T06:37:03;8.80;99.90
4701;DHT22;8724;51.272;6.554;2023-04-06T06:39:32;8.80;99.90
4701;DHT22;8724;51.272;6.554;2023-04-06T06:42:01;8.80;99.90
4701;DHT22;8724;51.272;6.554;2023-04-06T06:44:48;8.80;99.90
4701;DHT22;8724;51.272;6.554;2023-04-06T06:47:17;8.80;99.90
4701;DHT22;8724;51.272;6.554;2023-04-06T06:49:45;8.90;99.90
4701;DHT22;8724;51.272;6.554;2023-04-06T06:52:15;8.90;99.90
4701;DHT22;8724;51.272;6.554;2023-04-06T06:54:44;8.90;99.90
4701;DHT22;8724;51.272;6.554;2023-04-06T06:57:13;9.00;99.90
4701;DHT22;8724;51.272;6.554;2023-04-06T06:59:41;9.00;99.90
4701;DHT22;8724;51.272;6.554;2023-04-06T07:02:10;9.00;99.90
4701;DHT22;8724;51.272;6.554;2023-04-06T07:04:38;9.00;99.90
4701;DHT22;8724;51.272;6.554;2023-04-06T07:07:07;9.00;99.90
4701;DHT22;8724;51.272;6.554;2023-04-06T07:09:38;9.00;99.90
4701;DHT22;8724;51.272;6.554;2023-04-06T07:12:07;9.10;99.90
4701;DHT22;8724;51.272;6.554;2023-04-06T07:14:36;9.10;99.90
4701;DHT22;8724;51.272;6.554;2023-04-06T07:17:04;9.10;99.90
4701;DHT22;8724;51.272;6.554;2023-04-06T07:19:33;9.10;99.90
4701;DHT22;8724;51.272;6.554;2023-04-06T07:22:02;9.10;99.90
4701;DHT22;8724;51.272;6.554;2023-04-06T07:24:31;9.20;99.90
4701;DHT22;8724;51.272;6.554;2023-04-06T07:27:02;9.20;99.90
4701;DHT22;8724;51.272;6.554;2023-04-06T07:29:30;9.20;99.90
4701;DHT22;8724;51.272;6.554;2023-04-06T07:31:59;9.30;99.90
4701;DHT22;8724;51.272;6.554;2023-04-06T07:34:29;9.20;99.90
4701;DHT22;8724;51.272;6.554;2023-04-06T07:36:58;9.30;99.90
4701;DHT22;8724;51.272;6.554;2023-04-06T07:39:30;9.30;99.90
4701;DHT22;8724;51.272;6.554;2023-04-06T07:42:01;9.30;99.90
4701;DHT22;8724;51.272;6.554;2023-04-06T07:44:30;9.30;99.90
4701;DHT22;8724;51.272;6.554;2023-04-06T07:46:58;9.40;99.90
4701;DHT22;8724;51.272;6.554;2023-04-06T07:49:27;9.40;99.90
4701;DHT22;8724;51.272;6.554;2023-04-06T07:51:56;9.40;99.90
4701;DHT22;8724;51.272;6.554;2023-04-06T07:54:25;9.40;99.90
4701;DHT22;8724;51.272;6.554;2023-04-06T07:56:53;9.40;99.90
4701;DHT22;8724;51.272;6.554;2023-04-06T07:59:23;9.50;99.90
4701;DHT22;8724;51.272;6.554;2023-04-06T08:01:52;9.40;99.90
4701;DHT22;8724;51.272;6.554;2023-04-06T08:04:21;9.50;99.90
4701;DHT22;8724;51.272;6.554;2023-04-06T08:06:50;9.50;99.90
4701;DHT22;8724;51.272;6.554;2023-04-06T08:09:18;9.50;99.90
4701;DHT22;8724;51.272;6.554;2023-04-06T08:11:47;9.60;99.90
4701;DHT22;8724;51.272;6.554;2023-04-06T08:14:15;9.60;99.90
4701;DHT22;8724;51.272;6.554;2023-04-06T08:16:46;9.60;99.90
4701;DHT22;8724;51.272;6.554;2023-04-06T08:19:14;9.60;99.90
4701;DHT22;8724;51.272;6.554;2023-04-06T08:21:44;9.70;99.90
4701;DHT22;8724;51.272;6.554;2023-04-06T08:24:14;9.70;99.90
4701;DHT22;8724;51.272;6.554;2023-04-06T08:26:43;9.70;99.90
4701;DHT22;8724;51.272;6.554;2023-04-06T08:29:11;9.70;99.90
4701;DHT22;8724;51.272;6.554;2023-04-06T08:31:40;9.80;99.90
4701;DHT22;8724;51.272;6.554;2023-04-06T08:34:10;9.80;99.90
4701;DHT22;8724;51.272;6.554;2023-04-06T08:36:41;9.80;99.90
4701;DHT22;8724;51.272;6.554;2023-04-06T08:39:09;9.80;99.90
4701;DHT22;8724;51.272;6.554;2023-04-06T08:41:38;9.80;99.90
4701;DHT22;8724;51.272;6.554;2023-04-06T08:44:09;9.80;99.90
4701;DHT22;8724;51.272;6.554;2023-04-06T08:46:38;9.90;99.90
4701;DHT22;8724;51.272;6.554;2023-04-06T08:49:07;9.90;99.90
4701;DHT22;8724;51.272;6.554;2023-04-06T08:51:38;9.90;99.90
4701;DHT22;8724;51.272;6.554;2023-04-06T08:54:06;9.90;99.90
4701;DHT22;8724;51.272;6.554;2023-04-06T08:56:38;10.00;99.90
4701;DHT22;8724;51.272;6.554;2023-04-06T08:59:08;10.00;99.90
4701;DHT22;8724;51.272;6.554;2023-04-06T09:01:40;10.00;99.90
4701;DHT22;8724;51.272;6.554;2023-04-06T09:04:10;10.00;99.90
4701;DHT22;8724;51.272;6.554;2023-04-06T09:06:42;10.00;99.90
4701;DHT22;8724;51.272;6.554;2023-04-06T09:09:11;10.10;99.90
4701;DHT22;8724;51.272;6.554;2023-04-06T09:11:47;10.10;99.90
4701;DHT22;8724;51.272;6.554;2023-04-06T09:14:17;10.10;99.90
4701;DHT22;8724;51.272;6.554;2023-04-06T09:16:46;10.10;99.90
4701;DHT22;8724;51.272;6.554;2023-04-06T09:19:14;10.20;99.90
4701;DHT22;8724;51.272;6.554;2023-04-06T09:21:44;10.20;99.90
4701;DHT22;8724;51.272;6.554;2023-04-06T09:24:13;10.20;99.90
4701;DHT22;8724;51.272;6.554;2023-04-06T09:26:45;10.20;99.90
4701;DHT22;8724;51.272;6.554;2023-04-06T09:29:23;10.20;99.90
4701;DHT22;8724;51.272;6.554;2023-04-06T09:32:02;10.30;99.90
4701;DHT22;8724;51.272;6.554;2023-04-06T09:34:31;10.30;99.90
4701;DHT22;8724;51.272;6.554;2023-04-06T09:37:01;10.30;99.90
4701;DHT22;8724;51.272;6.554;2023-04-06T09:39:39;10.40;99.90
4701;DHT22;8724;51.272;6.554;2023-04-06T09:42:08;10.40;99.90
4701;DHT22;8724;51.272;6.554;2023-04-06T09:44:37;10.40;99.90
4701;DHT22;8724;51.272;6.554;2023-04-06T09:47:06;10.40;99.90
4701;DHT22;8724;51.272;6.554;2023-04-06T09:49:35;10.50;99.90
4701;DHT22;8724;51.272;6.554;2023-04-06T09:52:06;10.50;99.90
4701;DHT22;8724;51.272;6.554;2023-04-06T09:54:36;10.50;99.90
4701;DHT22;8724;51.272;6.554;2023-04-06T09:57:08;10.50;99.90
4701;DHT22;8724;51.272;6.554;2023-04-06T09:59:44;10.50;99.90
4701;DHT22;8724;51.272;6.554;2023-04-06T10:02:20;10.50;99.90
4701;DHT22;8724;51.272;6.554;2023-04-06T10:04:56;10.60;99.90
4701;DHT22;8724;51.272;6.554;2023-04-06T10:07:26;10.60;99.90
4701;DHT22;8724;51.272;6.554;2023-04-06T10:09:55;10.60;99.90
4701;DHT22;8724;51.272;6.554;2023-04-06T10:12:24;10.70;99.90
4701;DHT22;8724;51.272;6.554;2023-04-06T10:14:53;10.70;99.90
4701;DHT22;8724;51.272;6.554;2023-04-06T10:17:22;10.70;99.90
4701;DHT22;8724;51.272;6.554;2023-04-06T10:19:55;10.70;99.90
4701;DHT22;8724;51.272;6.554;2023-04-06T10:22:32;10.90;99.90
4701;DHT22;8724;51.272;6.554;2023-04-06T10:25:03;10.80;99.90
4701;DHT22;8724;51.272;6.554;2023-04-06T10:27:33;10.80;99.90
4701;DHT22;8724;51.272;6.554;2023-04-06T10:30:02;10.80;99.90
4701;DHT22;8724;51.272;6.554;2023-04-06T10:32:33;10.90;99.90
4701;DHT22;8724;51.272;6.554;2023-04-06T10:35:09;10.90;99.90
4701;DHT22;8724;51.272;6.554;2023-04-06T10:37:50;10.90;99.90
4701;DHT22;8724;51.272;6.554;2023-04-06T10:40:23;11.00;99.90
4701;DHT22;8724;51.272;6.554;2023-04-06T10:42:53;11.00;99.90
4701;DHT22;8724;51.272;6.554;2023-04-06T10:45:23;11.00;99.90
4701;DHT22;8724;51.272;6.554;2023-04-06T10:47:53;11.00;99.90
4701;DHT22;8724;51.272;6.554;2023-04-06T10:50:23;11.00;99.90
4701;DHT22;8724;51.272;6.554;2023-04-06T10:53:03;11.00;99.90
4701;DHT22;8724;51.272;6.554;2023-04-06T10:55:32;10.80;99.90
4701;DHT22;8724;51.272;6.554;2023-04-06T10:58:01;11.10;99.90
4701;DHT22;8724;51.272;6.554;2023-04-06T11:00:29;11.10;99.90
4701;DHT22;8724;51.272;6.554;2023-04-06T11:03:15;11.10;99.90
4701;DHT22;8724;51.272;6.554;2023-04-06T11:05:44;11.10;99.90
4701;DHT22;8724;51.272;6.554;2023-04-06T11:08:27;11.10;99.90
4701;DHT22;8724;51.272;6.554;2023-04-06T11:11:06;11.10;99.90
4701;DHT22;8724;51.272;6.554;2023-04-06T11:13:39;11.10;99.90
4701;DHT22;8724;51.272;6.554;2023-04-06T11:16:13;11.20;99.90
4701;DHT22;8724;51.272;6.554;2023-04-06T11:18:49;11.20;99.90
4701;DHT22;8724;51.272;6.554;2023-04-06T11:21:19;11.20;99.90
4701;DHT22;8724;51.272;6.554;2023-04-06T11:23:49;11.20;99.90
4701;DHT22;8724;51.272;6.554;2023-04-06T11:26:18;11.20;99.90
4701;DHT22;8724;51.272;6.554;2023-04-06T11:28:48;11.20;99.90
4701;DHT22;8724;51.272;6.554;2023-04-06T11:31:16;11.10;99.90
4701;DHT22;8724;51.272;6.554;2023-04-06T11:33:45;11.30;99.90
4701;DHT22;8724;51.272;6.554;2023-04-06T11:36:13;11.30;99.90
4701;DHT22;8724;51.272;6.554;2023-04-06T11:38:43;11.30;99.90
4701;DHT22;8724;51.272;6.554;2023-04-06T11:41:13;11.30;99.90
4701;DHT22;8724;51.272;6.554;2023-04-06T11:43:47;11.30;99.90
4701;DHT22;8724;51.272;6.554;2023-04-06T11:46:18;11.30;99.90
4701;DHT22;8724;51.272;6.554;2023-04-06T11:48:47;11.40;99.90
4701;DHT22;8724;51.272;6.554;2023-04-06T11:51:22;11.30;99.90
4701;DHT22;8724;51.272;6.554;2023-04-06T11:53:51;11.40;99.90
4701;DHT22;8724;51.272;6.554;2023-04-06T11:56:28;11.40;99.90
4701;DHT22;8724;51.272;6.554;2023-04-06T11:58:57;11.40;99.90
4701;DHT22;8724;51.272;6.554;2023-04-06T12:01:26;11.50;99.90
4701;DHT22;8724;51.272;6.554;2023-04-06T12:03:57;11.50;99.90
4701;DHT22;8724;51.272;6.554;2023-04-06T12:06:26;11.50;99.90
4701;DHT22;8724;51.272;6.554;2023-04-06T12:08:54;11.50;99.90
4701;DHT22;8724;51.272;6.554;2023-04-06T12:11:23;11.50;99.90
4701;DHT22;8724;51.272;6.554;2023-04-06T12:13:53;11.50;99.90
4701;DHT22;8724;51.272;6.554;2023-04-06T12:16:22;11.50;99.90
4701;DHT22;8724;51.272;6.554;2023-04-06T12:18:51;11.50;99.90
4701;DHT22;8724;51.272;6.554;2023-04-06T12:21:19;11.50;99.90
4701;DHT22;8724;51.272;6.554;2023-04-06T12:23:48;11.50;99.90
4701;DHT22;8724;51.272;6.554;2023-04-06T12:26:17;11.50;99.90
4701;DHT22;8724;51.272;6.554;2023-04-06T12:28:45;11.60;99.90
4701;DHT22;8724;51.272;6.554;2023-04-06T12:31:19;11.60;99.90
4701;DHT22;8724;51.272;6.554;2023-04-06T12:33:49;11.60;99.90
4701;DHT22;8724;51.272;6.554;2023-04-06T12:36:19;11.50;99.90
4701;DHT22;8724;51.272;6.554;2023-04-06T12:38:48;11.60;99.90
4701;DHT22;8724;51.272;6.554;2023-04-06T12:41:18;11.60;99.90
4701;DHT22;8724;51.272;6.554;2023-04-06T12:43:48;11.60;99.90
4701;DHT22;8724;51.272;6.554;2023-04-06T12:46:19;11.60;99.90
4701;DHT22;8724;51.272;6.554;2023-04-06T12:48:48;11.60;99.90
4701;DHT22;8724;51.272;6.554;2023-04-06T12:51:16;11.60;99.90
4701;DHT22;8724;51.272;6.554;2023-04-06T12:53:45;11.60;99.90
4701;DHT22;8724;51.272;6.554;2023-04-06T12:56:15;11.40;99.90
4701;DHT22;8724;51.272;6.554;2023-04-06T12:58:44;11.80;99.90
4701;DHT22;8724;51.272;6.554;2023-04-06T13:01:13;11.70;99.90
4701;DHT22;8724;51.272;6.554;2023-04-06T13:03:43;11.60;99.90
4701;DHT22;8724;51.272;6.554;2023-04-06T13:06:12;11.60;99.90
4701;DHT22;8724;51.272;6.554;2023-04-06T13:08:42;11.60;99.90
4701;DHT22;8724;51.272;6.554;2023-04-06T13:11:11;11.60;99.90
4701;DHT22;8724;51.272;6.554;2023-04-06T13:13:39;11.60;99.90
4701;DHT22;8724;51.272;6.554;2023-04-06T13:16:08;11.60;99.90
4701;DHT22;8724;51.272;6.554;2023-04-06T13:18:37;11.60;99.90
4701;DHT22;8724;51.272;6.554;2023-04-06T13:21:08;11.60;99.90
4701;DHT22;8724;51.272;6.554;2023-04-06T13:23:36;11.60;99.90
4701;DHT22;8724;51.272;6.554;2023-04-06T13:26:06;11.60;99.90
4701;DHT22;8724;51.272;6.554;2023-04-06T13:28:37;11.60;99.90
4701;DHT22;8724;51.272;6.554;2023-04-06T13:31:06;11.60;99.90
4701;DHT22;8724;51.272;6.554;2023-04-06T13:33:35;11.60;99.90
4701;DHT22;8724;51.272;6.554;2023-04-06T13:36:07;11.50;99.90
4701;DHT22;8724;51.272;6.554;2023-04-06T13:38:36;11.60;99.90
4701;DHT22;8724;51.272;6.554;2023-04-06T13:41:06;11.60;99.90
4701;DHT22;8724;51.272;6.554;2023-04-06T13:43:35;11.50;99.90
4701;DHT22;8724;51.272;6.554;2023-04-06T13:46:03;11.50;99.90
4701;DHT22;8724;51.272;6.554;2023-04-06T13:48:32;11.50;99.90
4701;DHT22;8724;51.272;6.554;2023-04-06T13:51:09;11.50;99.90
4701;DHT22;8724;51.272;6.554;2023-04-06T13:53:38;11.50;99.90
4701;DHT22;8724;51.272;6.554;2023-04-06T13:56:08;11.50;99.90
4701;DHT22;8724;51.272;6.554;2023-04-06T13:58:36;11.50;99.90
4701;DHT22;8724;51.272;6.554;2023-04-06T14:01:06;11.50;99.90
4701;DHT22;8724;51.272;6.554;2023-04-06T14:03:37;11.50;99.90
4701;DHT22;8724;51.272;6.554;2023-04-06T14:06:12;11.50;99.90
4701;DHT22;8724;51.272;6.554;2023-04-06T14:08:43;11.50;99.90
4701;DHT22;8724;51.272;6.554;2023-04-06T14:11:12;11.50;99.90
4701;DHT22;8724;51.272;6.554;2023-04-06T14:13:41;11.50;99.90
4701;DHT22;8724;51.272;6.554;2023-04-06T14:16:10;11.50;99.90
4701;DHT22;8724;51.272;6.554;2023-04-06T14:18:39;11.50;99.90
4701;DHT22;8724;51.272;6.554;2023-04-06T14:21:08;11.50;99.90
4701;DHT22;8724;51.272;6.554;2023-04-06T14:23:37;11.50;99.90
4701;DHT22;8724;51.272;6.554;2023-04-06T14:26:08;11.50;99.90
4701;DHT22;8724;51.272;6.554;2023-04-06T14:28:37;11.50;99.90
4701;DHT22;8724;51.272;6.554;2023-04-06T14:31:11;11.50;99.90
4701;DHT22;8724;51.272;6.554;2023-04-06T14:33:41;11.50;99.90
4701;DHT22;8724;51.272;6.554;2023-04-06T14:36:10;11.50;99.90
4701;DHT22;8724;51.272;6.554;2023-04-06T14:38:40;11.50;99.90
4701;DHT22;8724;51.272;6.554;2023-04-06T14:41:15;11.40;99.90
4701;DHT22;8724;51.272;6.554;2023-04-06T14:43:45;11.50;99.90
4701;DHT22;8724;51.272;6.554;2023-04-06T14:46:14;11.50;99.90
4701;DHT22;8724;51.272;6.554;2023-04-06T14:48:45;11.50;99.90
4701;DHT22;8724;51.272;6.554;2023-04-06T14:51:13;11.50;99.90
4701;DHT22;8724;51.272;6.554;2023-04-06T14:53:43;11.40;99.90
4701;DHT22;8724;51.272;6.554;2023-04-06T14:56:12;11.40;99.90
4701;DHT22;8724;51.272;6.554;2023-04-06T14:58:41;11.40;99.90
4701;DHT22;8724;51.272;6.554;2023-04-06T15:01:09;11.50;99.90
4701;DHT22;8724;51.272;6.554;2023-04-06T15:03:38;11.40;99.90
4701;DHT22;8724;51.272;6.554;2023-04-06T15:06:12;11.50;99.90
4701;DHT22;8724;51.272;6.554;2023-04-06T15:08:43;11.40;99.90
4701;DHT22;8724;51.272;6.554;2023-04-06T15:11:12;11.40;99.90
4701;DHT22;8724;51.272;6.554;2023-04-06T15:13:41;11.40;99.90
4701;DHT22;8724;51.272;6.554;2023-04-06T15:16:10;11.40;99.90
4701;DHT22;8724;51.272;6.554;2023-04-06T15:18:39;11.40;99.90
4701;DHT22;8724;51.272;6.554;2023-04-06T15:21:07;11.40;99.90
4701;DHT22;8724;51.272;6.554;2023-04-06T15:23:36;11.40;99.90
4701;DHT22;8724;51.272;6.554;2023-04-06T15:26:05;11.40;99.90
4701;DHT22;8724;51.272;6.554;2023-04-06T15:28:37;11.40;99.90
4701;DHT22;8724;51.272;6.554;2023-04-06T15:31:13;11.40;99.90
4701;DHT22;8724;51.272;6.554;2023-04-06T15:33:54;11.40;99.90
4701;DHT22;8724;51.272;6.554;2023-04-06T15:36:24;11.40;99.90
4701;DHT22;8724;51.272;6.554;2023-04-06T15:38:53;11.40;99.90
4701;DHT22;8724;51.272;6.554;2023-04-06T15:41:23;11.40;99.90
4701;DHT22;8724;51.272;6.554;2023-04-06T15:43:53;11.40;99.90
4701;DHT22;8724;51.272;6.554;2023-04-06T15:46:22;11.40;99.90
4701;DHT22;8724;51.272;6.554;2023-04-06T15:48:51;11.40;99.90
4701;DHT22;8724;51.272;6.554;2023-04-06T15:51:19;11.40;99.90
4701;DHT22;8724;51.272;6.554;2023-04-06T15:53:48;11.40;99.90
4701;DHT22;8724;51.272;6.554;2023-04-06T15:56:16;11.40;99.90
4701;DHT22;8724;51.272;6.554;2023-04-06T15:58:46;11.40;99.90
4701;DHT22;8724;51.272;6.554;2023-04-06T16:01:16;11.40;99.90
4701;DHT22;8724;51.272;6.554;2023-04-06T16:03:45;11.40;99.90
4701;DHT22;8724;51.272;6.554;2023-04-06T16:06:14;11.30;99.90
4701;DHT22;8724;51.272;6.554;2023-04-06T16:08:42;11.40;99.90
4701;DHT22;8724;51.272;6.554;2023-04-06T16:11:11;11.30;99.90
4701;DHT22;8724;51.272;6.554;2023-04-06T16:13:40;11.30;99.90
4701;DHT22;8724;51.272;6.554;2023-04-06T16:16:14;11.40;99.90
4701;DHT22;8724;51.272;6.554;2023-04-06T16:18:43;11.40;99.90
4701;DHT22;8724;51.272;6.554;2023-04-06T16:21:14;11.30;99.90
4701;DHT22;8724;51.272;6.554;2023-04-06T16:23:46;11.30;99.90
4701;DHT22;8724;51.272;6.554;2023-04-06T16:26:15;11.30;99.90
4701;DHT22;8724;51.272;6.554;2023-04-06T16:28:45;11.30;99.90
4701;DHT22;8724;51.272;6.554;2023-04-06T16:31:18;11.30;99.90
4701;DHT22;8724;51.272;6.554;2023-04-06T16:33:48;11.30;99.90
4701;DHT22;8724;51.272;6.554;2023-04-06T16:36:21;11.30;99.90